Time;durP1;ratioP1;P1;durP2;ratioP2;P2;SDS_P1;SDS_P2;PMS_P1;PMS_P2;Temp;Humidity;BMP_temperature;BMP_pressure;BME280_temperature;BME280_humidity;BME280_pressure;Samples;Min_cycle;Max_cycle;Signal;HPM_P1;HPM_P2
2022/10/21 00:01:38;;;;;;;32.50;18.98;;;;;;;4.01;74.89;100639.58;2144612;82;27557;-64
2022/10/21 00:04:39;;;;;;;38.00;18.95;;;;;;;3.99;74.93;100648.47;2144384;82;28259;-64
2022/10/21 00:07:41;;;;;;;36.25;18.35;;;;;;;3.93;75.03;100642.36;2144222;83;31050;-64
2022/10/21 00:10:43;;;;;;;40.25;18.15;;;;;;;3.92;75.15;100631.80;2144453;83;32926;-64
2022/10/21 00:13:44;;;;;;;31.93;18.00;;;;;;;3.88;75.29;100639.37;2115204;84;29333;-64
2022/10/21 00:16:46;;;;;;;34.03;19.87;;;;;;;3.84;74.96;100635.90;2144205;83;27712;-64
2022/10/21 00:19:48;;;;;;;39.58;21.37;;;;;;;3.82;75.10;100643.43;2115026;84;30032;-63
2022/10/21 00:22:49;;;;;;;37.05;19.75;;;;;;;3.78;75.14;100640.85;2144391;82;30906;-64
2022/10/21 00:25:57;;;;;;;35.25;21.23;;;;;;;3.77;75.36;100638.20;2114667;84;33576;-61
2022/10/21 00:28:58;;;;;;;38.05;20.75;;;;;;;3.74;75.37;100643.12;2144423;83;29378;-64
2022/10/21 00:32:00;;;;;;;36.93;21.02;;;;;;;3.74;75.45;100639.14;2115071;84;27688;-64
2022/10/21 00:35:02;;;;;;;35.30;20.43;;;;;;;3.72;75.65;100628.16;2144727;83;29071;-63
2022/10/21 00:38:04;;;;;;;35.50;19.82;;;;;;;3.72;76.19;100628.16;2115008;84;32354;-66
2022/10/21 00:41:06;;;;;;;40.05;21.85;;;;;;;3.69;76.03;100622.44;2144329;83;33688;-64
2022/10/21 00:44:13;;;;;;;36.10;21.12;;;;;;;3.67;75.99;100609.66;2115306;84;30530;-65
2022/10/21 00:47:17;;;;;;;37.85;22.55;;;;;;;3.67;76.20;100602.17;2145048;83;27546;-63
2022/10/21 00:50:32;;;;;;;39.08;20.45;;;;;;;3.65;77.18;100595.55;2115008;84;29896;-60
2022/10/21 00:53:36;;;;;;;41.83;21.87;;;;;;;3.63;76.80;100582.81;2115305;84;31064;-60
2022/10/21 00:56:40;;;;;;;36.13;22.05;;;;;;;3.63;77.00;100579.70;2109993;82;32974;-61
2022/10/21 00:59:46;;;;;;;39.33;22.85;;;;;;;3.64;76.96;100571.31;2047947;86;29815;-64
2022/10/21 01:02:47;;;;;;;39.35;22.75;;;;;;;3.65;77.42;100573.03;2069805;85;28391;-63
2022/10/21 01:05:50;;;;;;;36.03;20.90;;;;;;;3.67;77.25;100586.28;2083443;85;29065;-63
2022/10/21 01:08:53;;;;;;;43.87;22.52;;;;;;;3.70;77.37;100584.91;2048484;86;31023;-61
2022/10/21 01:11:55;;;;;;;41.60;22.77;;;;;;;3.74;77.41;100579.53;2108256;84;33057;-63
2022/10/21 01:15:08;;;;;;;41.58;22.95;;;;;;;3.78;77.58;100568.41;2108112;83;29413;-63
2022/10/21 01:18:33;;;;;;;40.17;23.40;;;;;;;3.82;77.96;100559.52;2101675;84;27677;-62
2022/10/21 01:21:43;;;;;;;32.38;17.40;;;;;;;3.85;77.79;100566.09;2095019;84;28678;-63
2022/10/21 01:24:55;;;;;;;43.48;24.00;;;;;;;3.88;77.79;100567.38;2118826;83;31906;-64
2022/10/21 01:28:14;;;;;;;38.38;24.15;;;;;;;3.92;77.76;100558.91;2144253;83;32806;-63
2022/10/21 01:31:30;;;;;;;50.08;23.87;;;;;;;3.96;77.91;100539.41;2144201;82;30549;-63
2022/10/21 01:34:49;;;;;;;41.77;23.75;;;;;;;4.03;78.13;100533.53;2119515;84;27532;-64
2022/10/21 01:38:16;;;;;;;40.63;23.45;;;;;;;4.08;78.14;100532.97;2147169;82;28702;-62
2022/10/21 01:41:31;;;;;;;40.28;23.52;;;;;;;4.12;78.06;100541.30;2148338;82;31552;-63
2022/10/21 01:44:50;;;;;;;41.85;25.45;;;;;;;4.17;77.96;100543.85;2148629;80;33018;-63
2022/10/21 01:48:00;;;;;;;48.70;26.55;;;;;;;4.23;78.11;100547.26;2135910;83;29683;-63
2022/10/21 01:51:05;;;;;;;43.60;25.48;;;;;;;4.29;78.15;100542.75;2132606;83;27819;-62
2022/10/21 01:54:15;;;;;;;45.25;25.57;;;;;;;4.32;78.27;100551.97;2135604;83;29493;-64
2022/10/21 01:57:19;;;;;;;43.28;25.27;;;;;;;4.38;78.26;100538.60;2153167;81;31017;-64
2022/10/21 02:00:21;;;;;;;40.55;22.95;;;;;;;4.43;78.17;100530.08;2157595;82;36691;-64
2022/10/21 02:03:28;;;;;;;45.55;25.45;;;;;;;4.47;78.47;100533.09;2157671;82;29852;-63
2022/10/21 02:06:29;;;;;;;40.78;23.00;;;;;;;4.51;78.05;100547.16;2157919;82;28014;-64
2022/10/21 02:09:31;;;;;;;40.10;23.67;;;;;;;4.53;78.09;100548.01;2157457;82;29125;-63
2022/10/21 02:12:33;;;;;;;36.10;22.98;;;;;;;4.54;78.03;100542.69;2157523;82;32361;-63
2022/10/21 02:15:36;;;;;;;45.48;24.15;;;;;;;4.55;77.96;100544.41;2157563;82;34103;-65
2022/10/21 02:18:39;;;;;;;37.73;23.02;;;;;;;4.57;77.97;100547.05;2155210;81;29334;-64
2022/10/21 02:21:41;;;;;;;43.38;25.37;;;;;;;4.59;77.95;100534.63;2157270;82;27746;-64
2022/10/21 02:24:47;;;;;;;39.75;23.83;;;;;;;4.62;77.98;100535.89;2174406;81;30080;-62
2022/10/21 02:27:49;;;;;;;35.75;22.85;;;;;;;4.65;78.17;100531.82;2159487;81;31550;-63
2022/10/21 02:31:18;;;;;;;42.25;23.25;;;;;;;4.67;78.08;100541.95;2159729;82;33145;-63
2022/10/21 02:34:41;;;;;;;39.80;22.90;;;;;;;4.72;77.99;100536.55;2160289;81;29762;-65
2022/10/21 02:37:54;;;;;;;33.50;21.68;;;;;;;4.76;78.03;100531.59;2160082;82;27645;-66
2022/10/21 02:41:00;;;;;;;37.53;23.18;;;;;;;4.78;78.08;100524.48;2152670;82;29181;-63
2022/10/21 02:44:03;;;;;;;35.75;23.12;;;;;;;4.81;77.96;100543.43;2121510;83;31107;-63
2022/10/21 02:47:04;;;;;;;35.60;22.80;;;;;;;4.82;77.89;100526.16;2159923;82;33545;-63
2022/10/21 02:50:07;;;;;;;32.15;22.05;;;;;;;4.86;77.93;100527.84;2160057;82;29681;-64
2022/10/21 02:53:10;;;;;;;36.60;22.22;;;;;;;4.90;77.90;100519.36;2160335;82;27689;-63
2022/10/21 02:56:11;;;;;;;34.75;22.42;;;;;;;4.94;77.99;100516.16;2159934;82;29572;-64
2022/10/21 02:59:13;;;;;;;37.55;22.70;;;;;;;4.97;78.03;100514.77;2121056;83;32290;-64
2022/10/21 03:02:15;;;;;;;33.25;21.70;;;;;;;5.00;78.19;100506.75;2159939;82;33754;-63
2022/10/21 03:05:16;;;;;;;37.28;21.55;;;;;;;5.04;78.04;100510.19;2121410;83;29357;-63
2022/10/21 03:08:18;;;;;;;33.60;20.90;;;;;;;5.06;78.10;100511.89;2159595;82;27616;-64
2022/10/21 03:11:20;;;;;;;37.17;23.00;;;;;;;5.09;78.09;100512.30;2136806;82;30094;-63
2022/10/21 03:14:22;;;;;;;35.33;21.20;;;;;;;5.12;78.02;100510.91;2136990;83;31422;-63
2022/10/21 03:17:23;;;;;;;32.73;20.92;;;;;;;5.16;78.02;100508.56;2136637;83;33393;-62
2022/10/21 03:20:25;;;;;;;43.13;21.70;;;;;;;5.20;78.04;100501.42;2123486;83;29729;-63
2022/10/21 03:23:26;;;;;;;35.90;21.35;;;;;;;5.22;78.00;100492.94;2184449;81;27708;-64
2022/10/21 03:26:28;;;;;;;36.38;19.73;;;;;;;5.25;77.99;100502.16;2184757;81;28664;-64
2022/10/21 03:29:30;;;;;;;43.85;20.82;;;;;;;5.26;77.96;100494.17;2184440;81;31606;-63
2022/10/21 03:32:31;;;;;;;33.73;20.50;;;;;;;5.28;77.86;100491.03;2184534;81;33026;-64
2022/10/21 03:35:33;;;;;;;37.28;21.65;;;;;;;5.31;77.98;100490.92;2184809;81;29654;-63
2022/10/21 03:38:35;;;;;;;32.78;19.62;;;;;;;5.30;77.87;100482.54;2155494;82;27691;-63
2022/10/21 03:41:37;;;;;;;34.65;19.23;;;;;;;5.35;77.86;100478.91;2184476;81;28920;-63
2022/10/21 03:44:38;;;;;;;35.10;20.68;;;;;;;5.36;77.89;100476.66;2184349;81;31487;-65
2022/10/21 03:47:40;;;;;;;33.23;22.00;;;;;;;5.36;77.95;100468.25;2184610;81;33299;-63
2022/10/21 03:50:41;;;;;;;32.40;20.95;;;;;;;5.37;77.86;100464.69;2190717;81;29743;-62
2022/10/21 03:53:43;;;;;;;33.45;20.30;;;;;;;5.40;77.83;100476.54;2160276;82;27574;-62
2022/10/21 03:56:45;;;;;;;31.60;19.25;;;;;;;5.44;77.87;100470.72;2159671;81;29708;-62
2022/10/21 03:59:47;;;;;;;31.70;19.62;;;;;;;5.46;77.80;100469.75;2159589;82;31651;-63
2022/10/21 04:02:49;;;;;;;32.58;20.40;;;;;;;5.49;77.86;100471.45;2159708;82;33044;-64
2022/10/21 04:05:50;;;;;;;28.55;18.40;;;;;;;5.53;77.96;100473.59;2159982;82;29357;-63
2022/10/21 04:08:52;;;;;;;223.18;121.37;;;;;;;5.54;77.86;100473.54;2121289;83;27591;-64
2022/10/21 04:11:53;;;;;;;54.30;32.28;;;;;;;5.59;77.89;100464.11;2159882;82;29566;-61
2022/10/21 04:14:56;;;;;;;37.85;24.23;;;;;;;5.63;77.90;100457.81;2159897;82;32211;-64
2022/10/21 04:17:58;;;;;;;45.10;26.65;;;;;;;5.66;77.87;100439.12;2121139;83;34086;-63
2022/10/21 04:21:00;;;;;;;34.50;22.87;;;;;;;5.72;77.92;100438.08;2159492;82;29421;-60
2022/10/21 04:24:01;;;;;;;31.90;21.07;;;;;;;5.76;77.88;100436.63;2159976;82;27713;-61
2022/10/21 04:27:03;;;;;;;32.15;19.62;;;;;;;5.81;77.91;100439.62;2159894;82;29857;-61
2022/10/21 04:30:06;;;;;;;30.72;18.90;;;;;;;5.87;77.87;100441.65;2159528;82;31439;-61
2022/10/21 04:33:08;;;;;;;29.25;19.27;;;;;;;5.91;77.88;100434.01;2159620;82;33014;-61
2022/10/21 04:36:09;;;;;;;38.17;22.93;;;;;;;5.96;77.89;100432.54;2160230;82;29705;-61
2022/10/21 04:39:11;;;;;;;33.00;21.30;;;;;;;6.01;77.86;100429.77;2159643;82;27704;-60
2022/10/21 04:42:13;;;;;;;36.00;21.48;;;;;;;6.06;77.86;100419.89;2159903;82;28825;-61
2022/10/21 04:45:16;;;;;;;36.03;22.35;;;;;;;6.12;77.93;100404.20;2159847;82;30975;-60
2022/10/21 04:48:17;;;;;;;39.85;24.95;;;;;;;6.17;77.92;100395.16;2159252;82;34154;-60
2022/10/21 04:51:19;;;;;;;48.10;30.10;;;;;;;6.23;78.00;100385.68;2155336;82;29405;-61
2022/10/21 04:54:20;;;;;;;58.17;32.40;;;;;;;6.30;77.98;100396.11;2155414;82;27627;-61
2022/10/21 04:57:22;;;;;;;55.45;32.30;;;;;;;6.36;78.01;100386.19;2155636;82;29082;-61
2022/10/21 05:00:24;;;;;;;50.10;31.02;;;;;;;6.44;78.00;100383.28;2155301;82;31498;-61
2022/10/21 05:03:25;;;;;;;46.95;28.80;;;;;;;6.51;77.97;100375.98;2184734;81;33906;-62
2022/10/21 05:06:27;;;;;;;47.40;25.15;;;;;;;6.57;78.01;100361.59;2184676;81;29703;-63
2022/10/21 05:09:29;;;;;;;42.50;25.62;;;;;;;6.65;77.98;100357.77;2184556;81;27611;-60
2022/10/21 05:12:31;;;;;;;45.15;27.25;;;;;;;6.73;77.96;100351.30;2184508;81;28733;-62
2022/10/21 05:15:33;;;;;;;49.27;28.07;;;;;;;6.80;78.03;100350.20;2184330;81;31493;-63
2022/10/21 05:18:34;;;;;;;47.15;29.00;;;;;;;6.88;77.96;100340.62;2185566;81;33367;-63
2022/10/21 05:21:36;;;;;;;44.85;25.32;;;;;;;6.93;77.84;100331.55;2159408;82;30544;-62
2022/10/21 05:24:38;;;;;;;41.50;24.20;;;;;;;7.00;77.83;100332.20;2160329;82;27479;-61
2022/10/21 05:27:40;;;;;;;37.85;21.15;;;;;;;7.06;77.78;100319.13;2159705;82;29414;-63
2022/10/21 05:30:41;;;;;;;28.47;18.80;;;;;;;7.13;77.71;100321.52;2159487;82;32205;-63
2022/10/21 05:33:43;;;;;;;30.52;17.77;;;;;;;7.21;77.58;100315.07;2159475;82;33398;-63
2022/10/21 05:36:47;;;;;;;27.45;16.30;;;;;;;7.24;77.46;100319.81;2159515;82;30562;-62
2022/10/21 05:39:49;;;;;;;21.45;15.40;;;;;;;7.26;77.29;100311.31;2159708;82;37272;-63
2022/10/21 05:42:51;;;;;;;26.42;16.30;;;;;;;7.29;77.19;100304.55;2159542;82;29120;-63
2022/10/21 05:45:53;;;;;;;28.47;16.75;;;;;;;7.33;77.09;100307.11;2159888;82;31095;-62
2022/10/21 05:48:54;;;;;;;26.57;16.67;;;;;;;7.34;77.03;100303.04;2159491;82;33507;-63
2022/10/21 05:51:56;;;;;;;25.62;15.85;;;;;;;7.37;76.94;100304.71;2159927;82;29683;-63
2022/10/21 05:54:58;;;;;;;21.10;14.85;;;;;;;7.39;76.88;100310.42;2155309;82;27661;-63
2022/10/21 05:57:59;;;;;;;22.65;15.65;;;;;;;7.40;76.89;100300.16;2154434;82;29083;-63
2022/10/21 06:01:01;;;;;;;22.02;13.70;;;;;;;7.43;76.83;100292.06;2153624;82;31078;-63
2022/10/21 06:04:03;;;;;;;20.75;12.47;;;;;;;7.48;76.78;100292.33;2153627;82;34265;-64
2022/10/21 06:07:05;;;;;;;22.20;12.65;;;;;;;7.50;76.73;100290.03;2153554;82;29368;-63
2022/10/21 06:10:10;;;;;;;20.62;12.35;;;;;;;7.54;76.65;100282.78;2153932;82;27701;-63
2022/10/21 06:13:12;;;;;;;22.27;13.15;;;;;;;7.56;76.57;100287.13;2154292;82;28652;-63
2022/10/21 06:16:15;;;;;;;21.35;12.85;;;;;;;7.55;76.45;100288.05;2153906;82;31331;-64
2022/10/21 06:19:16;;;;;;;21.60;12.80;;;;;;;7.55;76.40;100285.86;2155726;82;33557;-63
2022/10/21 06:22:18;;;;;;;21.77;12.73;;;;;;;7.55;76.29;100292.05;2158026;82;29693;-62
2022/10/21 06:25:20;;;;;;;16.10;12.15;;;;;;;7.58;76.35;100297.75;2158134;82;27709;-63
2022/10/21 06:28:22;;;;;;;16.65;12.07;;;;;;;7.59;76.25;100290.16;2157561;82;30749;-63
2022/10/21 06:31:24;;;;;;;16.60;11.25;;;;;;;7.62;76.25;100291.83;2157689;82;32252;-62
2022/10/21 06:34:26;;;;;;;13.55;11.08;;;;;;;7.65;76.24;100279.24;2139307;82;33092;-59
2022/10/21 06:37:28;;;;;;;16.82;11.33;;;;;;;7.67;76.22;100276.53;2139325;82;29486;-59
2022/10/21 06:40:32;;;;;;;20.25;12.53;;;;;;;7.72;76.17;100277.20;2139042;82;27726;-61
2022/10/21 06:43:34;;;;;;;18.80;10.88;;;;;;;7.76;76.24;100274.84;2101173;84;32303;-62
2022/10/21 06:46:36;;;;;;;14.13;10.58;;;;;;;7.80;75.98;100271.58;2117227;84;32259;-60
2022/10/21 06:49:38;;;;;;;16.75;10.80;;;;;;;7.81;75.97;100270.20;2138131;82;32982;-63
2022/10/21 06:52:40;;;;;;;17.35;11.05;;;;;;;7.88;76.13;100275.69;2176447;81;29737;-63
2022/10/21 06:55:42;;;;;;;19.87;12.40;;;;;;;7.96;75.98;100267.86;2167420;82;27671;-63
2022/10/21 06:58:49;;;;;;;16.30;11.63;;;;;;;8.02;76.00;100265.82;2171284;81;29474;-63
2022/10/21 07:01:48;;;;;;;20.62;10.93;;;;;;;8.10;75.91;100261.52;2172083;81;31063;-63
2022/10/21 07:04:51;;;;;;;19.30;10.80;;;;;;;8.17;75.83;100261.69;2173089;81;33336;-64
2022/10/21 07:07:53;;;;;;;15.00;9.35;;;;;;;8.28;75.88;100256.36;2173245;81;29330;-63
2022/10/21 07:10:54;;;;;;;24.72;12.13;;;;;;;8.39;75.44;100247.92;2173225;81;27751;-63
2022/10/21 07:13:56;;;;;;;20.43;10.70;;;;;;;8.48;75.32;100239.55;2173042;81;29864;-63
2022/10/21 07:16:58;;;;;;;17.20;10.58;;;;;;;8.55;75.37;100236.15;2151616;81;31618;-64
2022/10/21 07:20:00;;;;;;;13.60;9.18;;;;;;;8.63;75.28;100229.55;2178535;81;34118;-63
2022/10/21 07:23:01;;;;;;;17.98;10.35;;;;;;;8.73;75.17;100233.17;2151818;82;30415;-63
2022/10/21 07:26:07;;;;;;;15.98;10.00;;;;;;;8.84;75.23;100240.25;2151734;82;27656;-64
2022/10/21 07:29:08;;;;;;;13.18;9.05;;;;;;;8.98;74.93;100246.34;2141978;83;28225;-61
2022/10/21 07:32:10;;;;;;;15.65;9.43;;;;;;;9.13;75.00;100250.11;2141742;82;31464;-63
2022/10/21 07:35:14;;;;;;;14.28;10.18;;;;;;;9.30;74.83;100240.02;2119856;84;33845;-61
2022/10/21 07:38:15;;;;;;;29.32;11.50;;;;;;;9.49;74.83;100246.72;2119702;84;29438;-63
2022/10/21 07:41:28;;;;;;;16.32;9.50;;;;;;;9.66;74.66;100239.72;2119477;84;27667;-64
2022/10/21 07:44:30;;;;;;;18.15;9.70;;;;;;;9.81;74.14;100234.13;2140785;83;28941;-64
2022/10/21 07:47:31;;;;;;;16.02;10.10;;;;;;;9.95;74.34;100230.31;2151657;82;31733;-64
2022/10/21 07:50:33;;;;;;;42.95;11.50;;;;;;;10.11;73.70;100228.23;2144631;82;32996;-63
2022/10/21 07:53:35;;;;;;;17.98;10.32;;;;;;;10.24;73.43;100236.05;2144357;83;30140;-63
2022/10/21 07:56:40;;;;;;;21.37;11.25;;;;;;;10.40;74.02;100232.64;2144329;82;27574;-63
2022/10/21 07:59:42;;;;;;;20.10;10.80;;;;;;;10.59;73.88;100240.63;2144794;81;29179;-63
2022/10/21 08:02:44;;;;;;;20.72;13.05;;;;;;;10.81;73.97;100240.39;2115333;84;32229;-64
2022/10/21 08:05:45;;;;;;;18.02;11.68;;;;;;;11.01;73.41;100242.48;2144458;83;33761;-64
2022/10/21 08:08:47;;;;;;;19.90;11.97;;;;;;;11.17;73.20;100235.85;2115327;84;29356;-64
2022/10/21 08:11:48;;;;;;;30.72;15.08;;;;;;;11.25;72.38;100230.47;2144831;83;27640;-64
2022/10/21 08:14:50;;;;;;;25.95;16.42;;;;;;;11.32;72.61;100234.17;2115240;84;29259;-64
2022/10/21 08:17:51;;;;;;;20.62;13.65;;;;;;;11.50;72.77;100224.25;2144641;82;31872;-65
2022/10/21 08:20:54;;;;;;;19.73;12.25;;;;;;;11.64;71.76;100213.62;2151598;82;33312;-64
2022/10/21 08:23:57;;;;;;;19.02;11.75;;;;;;;11.77;71.86;100223.66;2151313;82;30126;-65
2022/10/21 08:26:59;;;;;;;17.95;10.70;;;;;;;11.95;72.05;100224.46;2141642;83;28327;-64
2022/10/21 08:30:00;;;;;;;17.90;9.40;;;;;;;12.14;71.18;100241.30;2119406;84;29529;-64
2022/10/21 08:33:02;;;;;;;12.45;8.50;;;;;;;12.27;71.44;100226.66;2119367;84;32278;-61
2022/10/21 08:36:11;;;;;;;9.20;7.12;;;;;;;12.40;71.28;100214.73;2180007;81;33812;-64
2022/10/21 08:39:13;;;;;;;13.30;7.20;;;;;;;12.48;69.47;100218.80;2151221;82;29335;-63
2022/10/21 08:42:16;;;;;;;11.53;7.83;;;;;;;12.50;70.00;100218.20;2141812;83;27737;-64
2022/10/21 08:45:42;;;;;;;15.95;6.67;;;;;;;12.56;70.02;100220.08;2151569;81;28661;-65
2022/10/21 08:49:01;;;;;;;13.15;7.40;;;;;;;12.71;69.68;100214.24;2141643;83;32056;-65
2022/10/21 08:52:12;;;;;;;18.67;9.43;;;;;;;12.92;70.33;100212.07;2145799;81;33032;-64
2022/10/21 08:55:24;;;;;;;16.93;7.03;;;;;;;13.15;69.99;100200.39;2144485;83;29354;-65
2022/10/21 08:58:25;;;;;;;10.80;6.83;;;;;;;13.31;68.90;100196.73;2134824;81;27699;-64
2022/10/21 09:01:48;;;;;;;8.55;6.12;;;;;;;13.39;68.39;100152.73;2117489;84;27960;-65
2022/10/21 09:05:09;;;;;;;8.15;6.30;;;;;;;13.39;68.39;100152.73;2153899;82;31022;-62
2022/10/21 09:08:42;;;;;;;11.75;6.53;;;;;;;13.57;67.57;100177.62;2152681;82;33025;-62
2022/10/21 09:11:52;;;;;;;13.55;7.92;;;;;;;13.54;66.71;100174.27;2154147;82;29331;-62
2022/10/21 09:15:14;;;;;;;11.10;7.65;;;;;;;13.52;67.36;100179.27;2153893;82;27673;-63
2022/10/21 09:18:27;;;;;;;13.78;9.28;;;;;;;13.63;66.84;100179.05;2154914;82;28754;-61
2022/10/21 09:22:01;;;;;;;22.55;12.65;;;;;;;13.72;67.12;100185.20;2151315;82;31422;-62
2022/10/21 09:25:35;;;;;;;20.45;12.53;;;;;;;13.83;66.08;100183.13;2150993;82;32270;-63
2022/10/21 09:28:36;;;;;;;18.82;12.78;;;;;;;13.83;66.15;100171.89;2151108;82;30480;-65
2022/10/21 09:31:38;;;;;;;14.60;11.20;;;;;;;13.89;65.56;100157.66;2151632;82;27725;-63
2022/10/21 09:34:50;;;;;;;18.25;11.18;;;;;;;13.90;66.09;100149.47;2151206;82;29096;-64
2022/10/21 09:38:20;;;;;;;17.20;9.60;;;;;;;13.96;65.28;100152.23;2151175;82;31836;-64
2022/10/21 09:41:33;;;;;;;16.35;9.53;;;;;;;14.01;65.48;100150.57;2150703;82;33034;-64
2022/10/21 09:44:35;;;;;;;11.88;8.43;;;;;;;14.10;65.36;100138.70;2146633;82;29402;-64
2022/10/21 09:47:36;;;;;;;13.50;7.87;;;;;;;14.18;65.84;100120.67;2152158;81;27708;-63
2022/10/21 09:50:38;;;;;;;14.33;7.65;;;;;;;14.32;65.78;100128.30;2181660;81;28559;-62
2022/10/21 09:53:52;;;;;;;11.80;7.87;;;;;;;14.36;65.64;100107.80;2181421;81;31663;-62
2022/10/21 09:57:19;;;;;;;14.18;8.75;;;;;;;14.61;65.57;100128.14;2182099;81;33348;-63
2022/10/21 10:00:20;;;;;;;10.90;7.78;;;;;;;14.73;64.48;100107.94;2184041;81;29376;-63
2022/10/21 10:03:44;;;;;;;12.35;7.72;;;;;;;14.69;64.70;100090.27;2184418;81;27669;-63
2022/10/21 10:06:46;;;;;;;12.85;7.20;;;;;;;14.96;65.04;100109.50;2184514;81;28501;-63
2022/10/21 10:09:47;;;;;;;11.40;7.72;;;;;;;15.14;65.16;100114.55;2158707;81;32157;-62
2022/10/21 10:12:57;;;;;;;12.95;6.65;;;;;;;15.29;65.12;100105.85;2183152;81;33347;-65
2022/10/21 10:16:21;;;;;;;9.33;5.83;;;;;;;15.45;64.61;100109.16;2177785;81;29697;-65
2022/10/21 10:19:26;;;;;;;9.83;5.78;;;;;;;15.62;63.16;100084.95;2111050;84;28006;-64
2022/10/21 10:22:28;;;;;;;7.90;4.85;;;;;;;15.83;64.31;100091.55;2113458;82;28814;-64
2022/10/21 10:25:35;;;;;;;12.35;6.28;;;;;;;16.01;63.60;100092.89;2114526;84;31445;-63
2022/10/21 10:28:36;;;;;;;9.98;5.08;;;;;;;16.23;63.20;100085.86;2090884;84;33347;-67
2022/10/21 10:31:38;;;;;;;8.50;4.92;;;;;;;16.39;62.90;100069.29;2114594;84;30456;-67
2022/10/21 10:34:51;;;;;;;6.70;4.72;;;;;;;16.58;62.32;100065.15;2091036;84;27659;-67
2022/10/21 10:37:53;;;;;;;6.42;4.70;;;;;;;16.71;61.69;100059.16;2113546;84;28867;-69
2022/10/21 10:41:05;;;;;;;6.87;5.12;;;;;;;16.86;61.32;100062.47;2114322;84;33161;-67
2022/10/21 10:44:11;;;;;;;5.72;4.75;;;;;;;16.95;61.44;100049.61;2114640;84;33174;-67
2022/10/21 10:47:24;;;;;;;10.53;4.75;;;;;;;17.05;61.38;100045.63;2114508;84;29381;-67
2022/10/21 10:50:48;;;;;;;8.50;4.30;;;;;;;17.12;60.73;100049.58;2110611;84;27702;-72
2022/10/21 10:54:27;;;;;;;6.33;4.47;;;;;;;17.21;60.62;100057.95;2124139;81;29450;-73
2022/10/21 10:57:29;;;;;;;8.40;4.65;;;;;;;17.26;60.12;100048.94;2192203;81;30998;-67
2022/10/21 11:00:32;;;;;;;4.75;3.98;;;;;;;17.32;60.11;100049.80;2147581;81;33124;-66
2022/10/21 11:03:39;;;;;;;6.28;4.37;;;;;;;17.39;59.46;100044.73;2183564;80;29455;-65
2022/10/21 11:06:49;;;;;;;11.88;4.45;;;;;;;17.41;58.99;100046.83;2180122;80;27758;-66
2022/10/21 11:09:53;;;;;;;9.63;4.42;;;;;;;17.45;58.77;100046.44;2180037;80;29543;-66
2022/10/21 11:13:00;;;;;;;7.00;5.27;;;;;;;17.57;58.96;100026.08;2180704;81;31642;-66
2022/10/21 11:16:42;;;;;;;9.80;4.95;;;;;;;17.71;59.06;100021.72;2180871;81;33778;-67
2022/10/21 11:20:25;;;;;;;7.15;4.47;;;;;;;17.83;58.60;100026.59;2146894;80;27694;-68
2022/10/21 11:24:02;;;;;;;8.48;4.28;;;;;;;17.88;57.47;100026.20;2130642;83;28197;-70
2022/10/21 11:27:36;;;;;;;6.45;4.22;;;;;;;17.79;56.77;100022.93;2032643;87;28656;-67
2022/10/21 11:31:17;;;;;;;6.67;4.28;;;;;;;17.66;57.07;100010.42;2032442;87;31866;-67
2022/10/21 11:34:47;;;;;;;8.00;4.47;;;;;;;17.50;56.98;100012.20;2032681;87;33657;-65
2022/10/21 11:38:35;;;;;;;10.13;5.17;;;;;;;17.30;56.39;100011.16;2032447;87;30227;-65
2022/10/21 11:42:17;;;;;;;7.95;4.45;;;;;;;17.16;56.64;100013.16;2032879;87;27802;-65
2022/10/21 11:45:30;;;;;;;8.38;4.78;;;;;;;17.10;56.49;100008.74;2032625;87;29581;-66
2022/10/21 11:49:31;;;;;;;5.53;4.37;;;;;;;17.07;56.97;100017.11;2048362;86;32250;-63
2022/10/21 11:52:45;;;;;;;7.87;5.00;;;;;;;17.05;56.71;100021.27;2002059;88;34342;-64
2022/10/21 11:56:17;;;;;;;14.68;4.58;;;;;;;16.99;56.90;100002.84;2002079;88;30357;-65
2022/10/21 11:59:47;;;;;;;6.72;5.08;;;;;;;17.01;56.84;99998.17;2002491;88;27896;-63
2022/10/21 12:03:03;;;;;;;6.55;4.60;;;;;;;17.04;57.36;99997.93;2041703;84;28723;-64
2022/10/21 12:06:16;;;;;;;9.23;4.62;;;;;;;17.10;56.48;99992.00;2084908;84;31039;-58
2022/10/21 12:09:32;;;;;;;7.80;5.08;;;;;;;17.12;56.79;100002.72;2075061;85;33023;-62
2022/10/21 12:12:39;;;;;;;8.90;5.45;;;;;;;17.19;56.93;100005.78;2084909;85;29356;-64
2022/10/21 12:15:47;;;;;;;10.30;5.67;;;;;;;17.24;56.62;99999.47;2084302;85;27671;-65
2022/10/21 12:18:53;;;;;;;7.03;5.30;;;;;;;17.21;56.09;100010.58;2093681;84;29927;-65
2022/10/21 12:21:55;;;;;;;13.50;5.35;;;;;;;17.25;56.80;100021.02;2099473;82;30999;-65
2022/10/21 12:25:17;;;;;;;7.35;5.25;;;;;;;17.32;56.39;100025.43;2159683;82;33392;-62
2022/10/21 12:28:30;;;;;;;10.80;4.87;;;;;;;17.32;55.76;100021.37;2159395;82;29706;-63
2022/10/21 12:31:46;;;;;;;6.78;4.80;;;;;;;17.37;56.37;100020.50;2159714;82;27701;-58
2022/10/21 12:34:47;;;;;;;12.15;6.37;;;;;;;17.40;56.41;100006.69;2159570;82;29571;-59
2022/10/21 12:37:57;;;;;;;10.40;5.83;;;;;;;17.43;56.24;100006.44;2159749;82;31402;-62
2022/10/21 12:41:24;;;;;;;11.60;5.78;;;;;;;17.39;55.79;99999.55;2159471;82;33757;-63
2022/10/21 12:44:27;;;;;;;11.70;5.50;;;;;;;17.33;55.38;100011.38;2159905;82;29322;-58
2022/10/21 12:47:32;;;;;;;13.25;6.50;;;;;;;17.24;55.58;100001.70;2159454;82;28189;-64
2022/10/21 12:50:34;;;;;;;11.12;6.10;;;;;;;17.19;55.36;100011.19;2159177;82;29435;-63
2022/10/21 12:53:48;;;;;;;10.08;6.08;;;;;;;17.15;55.76;100010.08;2159325;82;32570;-62
2022/10/21 12:57:05;;;;;;;9.83;5.13;;;;;;;17.18;55.75;100008.11;2159751;82;33806;-60
2022/10/21 13:00:31;;;;;;;10.23;5.47;;;;;;;17.20;55.90;99988.04;2159338;82;29713;-63
2022/10/21 13:03:51;;;;;;;13.20;5.70;;;;;;;17.25;55.74;99976.82;2160038;82;27712;-65
2022/10/21 13:06:55;;;;;;;11.22;5.20;;;;;;;17.25;55.82;99975.47;2159455;82;30033;-63
2022/10/21 13:10:08;;;;;;;8.50;5.93;;;;;;;17.23;55.36;99993.69;2160120;82;31013;-65
2022/10/21 13:13:34;;;;;;;8.10;5.28;;;;;;;17.22;55.69;99984.72;2159708;82;33720;-65
2022/10/21 13:16:41;;;;;;;10.65;4.95;;;;;;;17.19;55.37;99990.38;2109766;83;29334;-60
2022/10/21 13:19:43;;;;;;;11.08;5.80;;;;;;;17.14;55.45;99997.53;2155861;82;27704;-59
2022/10/21 13:22:48;;;;;;;11.25;5.12;;;;;;;17.15;55.49;99996.55;2156544;82;28718;-66
2022/10/21 13:26:07;;;;;;;7.37;5.42;;;;;;;17.11;55.39;100003.70;2160078;82;31111;-66
2022/10/21 13:29:14;;;;;;;6.45;5.15;;;;;;;17.06;54.84;100005.41;2155411;82;33794;-61
2022/10/21 13:32:26;;;;;;;12.45;5.85;;;;;;;16.93;55.10;100010.07;2159464;82;31502;-64
2022/10/21 13:35:48;;;;;;;9.50;5.83;;;;;;;16.86;55.32;100007.88;2159847;82;27609;-62
2022/10/21 13:38:52;;;;;;;12.45;7.10;;;;;;;16.79;55.49;100019.33;2159460;82;29937;-63
2022/10/21 13:42:02;;;;;;;11.40;6.00;;;;;;;16.71;55.43;100015.88;2159532;82;32420;-61
2022/10/21 13:45:27;;;;;;;7.12;5.80;;;;;;;16.67;55.78;100019.30;2159712;82;33835;-66
2022/10/21 13:48:29;;;;;;;9.63;5.45;;;;;;;16.63;55.90;100023.73;2160151;82;29741;-66
2022/10/21 13:51:36;;;;;;;10.35;5.67;;;;;;;16.52;55.75;100021.88;2159734;82;27655;-66
2022/10/21 13:54:38;;;;;;;15.03;5.85;;;;;;;16.47;56.11;100032.19;2132562;82;29831;-66
2022/10/21 13:57:41;;;;;;;9.65;5.65;;;;;;;16.42;56.20;100036.61;2159367;82;31670;-64
2022/10/21 14:00:43;;;;;;;15.63;5.25;;;;;;;16.38;56.30;100032.45;2133016;82;33018;-60
2022/10/21 14:03:46;;;;;;;15.72;5.87;;;;;;;16.28;56.12;100027.37;2180721;80;29917;-66
2022/10/21 14:06:53;;;;;;;9.55;5.90;;;;;;;16.21;56.40;100029.22;2180657;80;27674;-61
2022/10/21 14:09:57;;;;;;;12.40;6.42;;;;;;;16.14;56.35;100037.42;2179308;80;28671;-64
2022/10/21 14:12:59;;;;;;;14.38;6.47;;;;;;;16.08;56.50;100033.83;2183575;81;31282;-62
2022/10/21 14:16:01;;;;;;;10.20;6.40;;;;;;;16.03;56.60;100040.11;2183304;81;33015;-65
2022/10/21 14:19:07;;;;;;;11.08;6.33;;;;;;;15.98;56.63;100032.83;2183679;81;29330;-65
2022/10/21 14:22:14;;;;;;;11.45;5.92;;;;;;;15.91;56.69;100041.39;2183509;80;27685;-63
2022/10/21 14:25:16;;;;;;;12.20;6.42;;;;;;;15.86;56.75;100044.08;2176169;81;28638;-66